KBLF

Mercer County Airport

Bluefield, West Virginia, USA
METAR KBLF 170152Z AUTO 26010KT 10SM CLR 01/M06 A3018 RMK AO2 SLP239 T00111061
Observed Flight Rules
Dec-17 @ 01:52 UTC (37 minutes ago) Visual Flight Rules
Wind Visibility Clouds
260° at 10 knots 10 miles
  • Clear skies
Temperatures Readings
Current 1°C / 34°F
Dewpoint -6°C / 21°F
Humidity 60%
Altimeter 30.18" Hg
Pressure 1023.9 hPa
Elevation 873
METAR KBLF 170152Z AUTO 26010KT 10SM CLR 01/M06 A3018 RMK AO2 SLP239 T00111061
Observed Flight Rules
Dec-17 @ 01:52 UTC
(37 minutes ago)
VFR
Wind Visibility
260° at 10 knots 10 miles
Clouds
  • Clear skies
Temperature Dewpoint
1°C / 34°F -6°C / 21°F
Humidity Altimeter Pressure
60% 30.18" Hg 1023.9 hPa